createdAt,value
2022-08-05T00:01:27.887Z,60.80
2022-08-05T00:06:33.259Z,61.40
2022-08-05T00:11:35.171Z,62.00
2022-08-05T00:16:53.385Z,62.40
2022-08-05T00:21:54.066Z,63.30
2022-08-05T00:26:53.172Z,64.20
2022-08-05T00:32:10.092Z,64.10
2022-08-05T00:37:14.404Z,64.60
2022-08-05T00:42:12.459Z,65.20
2022-08-05T00:47:49.174Z,65.10
2022-08-05T00:52:49.793Z,66.30
2022-08-05T00:57:58.389Z,66.10
2022-08-05T01:02:57.681Z,66.90
2022-08-05T01:08:41.885Z,67.20
2022-08-05T01:13:22.448Z,68.80
2022-08-05T01:18:30.837Z,70.50
2022-08-05T01:23:44.839Z,71.90
2022-08-05T01:28:57.370Z,73.00
2022-08-05T01:34:05.673Z,74.00
2022-08-05T01:39:06.535Z,75.40
2022-08-05T01:44:11.339Z,75.80
2022-08-05T01:49:23.800Z,77.50
2022-08-05T01:54:27.216Z,79.00
2022-08-05T01:59:28.883Z,79.20
2022-08-05T02:04:30.610Z,80.90
2022-08-05T02:09:29.053Z,81.70
2022-08-05T02:14:33.236Z,83.30
2022-08-05T02:19:34.719Z,83.80
2022-08-05T02:24:36.977Z,84.00
2022-08-05T02:29:58.093Z,84.50
2022-08-05T02:34:57.929Z,85.50
2022-08-05T02:39:58.973Z,85.60
2022-08-05T02:44:59.831Z,86.20
2022-08-05T02:50:00.528Z,86.30
2022-08-05T02:55:01.783Z,86.60
2022-08-05T03:00:06.500Z,87.70
2022-08-05T03:05:07.547Z,88.60
2022-08-05T03:10:05.951Z,89.20
2022-08-05T03:15:07.523Z,90.20
2022-08-05T03:20:08.466Z,90.40
2022-08-05T03:25:32.553Z,91.10
2022-08-05T03:30:34.102Z,92.00
2022-08-05T03:35:33.743Z,91.90
2022-08-05T03:40:41.346Z,92.20
2022-08-05T03:45:57.681Z,92.70
2022-08-05T03:52:35.455Z,92.90
2022-08-05T03:56:31.912Z,93.20
2022-08-05T04:01:38.658Z,93.50
2022-08-05T04:06:37.894Z,94.60
2022-08-05T04:11:47.463Z,94.70
2022-08-05T04:16:50.523Z,95.10
2022-08-05T04:22:09.849Z,95.20
2022-08-05T04:27:09.126Z,95.50
2022-08-05T04:32:09.192Z,95.70
2022-08-05T04:37:07.225Z,96.10
2022-08-05T04:42:06.050Z,96.40
2022-08-05T04:47:09.024Z,96.80
2022-08-05T04:52:09.733Z,96.80
2022-08-05T04:57:07.722Z,97.50
2022-08-05T05:02:36.742Z,97.50
2022-08-05T05:07:29.430Z,97.60
2022-08-05T05:12:30.187Z,97.70
2022-08-05T05:17:55.719Z,97.90
2022-08-05T05:22:47.747Z,98.00
2022-08-05T05:27:53.651Z,98.10
2022-08-05T05:32:53.775Z,98.20
2022-08-05T05:37:59.432Z,98.40
2022-08-05T05:42:58.930Z,99.00
2022-08-05T05:48:06.371Z,99.30
2022-08-05T05:53:21.350Z,99.50
2022-08-05T05:58:20.717Z,99.40
2022-08-05T06:03:53.980Z,99.90
2022-08-05T06:08:49.192Z,99.90
2022-08-05T06:13:50.263Z,99.90
2022-08-05T06:18:53.588Z,99.90
2022-08-05T06:23:53.063Z,99.90
2022-08-05T06:28:51.045Z,99.90
2022-08-05T06:34:07.280Z,99.90
2022-08-05T06:39:08.680Z,99.90
2022-08-05T06:44:06.913Z,99.90
2022-08-05T06:49:05.899Z,99.90
2022-08-05T06:54:06.405Z,99.90
2022-08-05T06:59:09.872Z,99.90
2022-08-05T07:04:09.886Z,99.90
2022-08-05T07:09:07.952Z,99.90
2022-08-05T07:14:30.373Z,99.90
2022-08-05T07:24:53.575Z,99.90
2022-08-05T07:30:24.441Z,99.90
2022-08-05T07:36:04.783Z,99.90
2022-08-05T07:40:33.016Z,99.90
2022-08-05T07:45:57.201Z,99.90
2022-08-05T07:50:51.488Z,99.90
2022-08-05T07:56:05.380Z,99.90
2022-08-05T08:01:12.251Z,99.90
2022-08-05T08:06:10.512Z,99.90
2022-08-05T08:11:09.146Z,99.90
2022-08-05T08:16:50.351Z,99.90
2022-08-05T08:21:35.725Z,99.90
2022-08-05T08:26:34.555Z,99.90
2022-08-05T08:31:33.848Z,99.90
2022-08-05T08:36:50.174Z,99.90
2022-08-05T08:41:59.894Z,99.90
2022-08-05T08:47:00.916Z,99.90
2022-08-05T08:52:13.468Z,99.90
2022-08-05T08:57:13.339Z,99.90
2022-08-05T09:02:14.457Z,99.90
2022-08-05T09:07:19.589Z,99.90
2022-08-05T09:12:27.296Z,99.90
2022-08-05T09:17:42.386Z,99.90
2022-08-05T09:23:18.900Z,99.90
2022-08-05T09:28:21.155Z,99.90
2022-08-05T09:33:20.872Z,99.90
2022-08-05T09:38:29.365Z,99.90
2022-08-05T09:43:40.448Z,99.90
2022-08-05T09:48:41.356Z,99.90
2022-08-05T09:53:59.201Z,99.90
2022-08-05T09:59:00.759Z,99.90
2022-08-05T10:04:10.462Z,99.90
2022-08-05T10:09:25.057Z,99.90
2022-08-05T10:14:30.235Z,99.90
2022-08-05T10:20:04.338Z,99.90
2022-08-05T10:24:50.720Z,99.90
2022-08-05T10:30:41.364Z,99.90
2022-08-05T10:35:10.241Z,99.90
2022-08-05T10:40:18.408Z,99.90
2022-08-05T10:45:23.698Z,99.90
2022-08-05T10:50:59.925Z,99.90
2022-08-05T10:56:21.042Z,99.90
2022-08-05T11:01:44.704Z,99.90
2022-08-05T11:07:08.238Z,99.90
2022-08-05T11:12:06.923Z,99.90
2022-08-05T11:17:57.253Z,99.90
2022-08-05T11:22:53.980Z,99.90
2022-08-05T11:28:00.793Z,99.90
2022-08-05T11:33:43.869Z,99.90
2022-08-05T11:38:57.817Z,99.90
2022-08-05T11:44:04.602Z,99.90
2022-08-05T11:49:08.036Z,99.90
2022-08-05T11:54:10.153Z,99.90
2022-08-05T11:59:15.728Z,99.90
2022-08-05T12:04:19.325Z,99.90
2022-08-05T12:09:53.503Z,99.90
2022-08-05T12:14:47.329Z,99.90
2022-08-05T12:20:27.889Z,99.90
2022-08-05T12:25:32.272Z,99.90
2022-08-05T12:30:38.991Z,99.30
2022-08-05T12:35:44.036Z,99.10
2022-08-05T12:40:47.515Z,97.50
2022-08-05T12:45:52.589Z,96.50
2022-08-05T12:52:11.131Z,95.60
2022-08-05T12:56:35.357Z,95.60
2022-08-05T13:02:00.105Z,95.20
2022-08-05T13:06:58.962Z,96.00
2022-08-05T13:12:05.844Z,95.90
2022-08-05T13:17:11.094Z,96.90
2022-08-05T13:22:12.090Z,98.00
2022-08-05T13:27:17.126Z,98.60
2022-08-05T13:32:35.130Z,98.50
2022-08-05T13:37:37.644Z,99.00
2022-08-05T13:42:37.085Z,97.20
2022-08-05T13:48:09.422Z,97.40
2022-08-05T13:52:55.498Z,98.30
2022-08-05T13:57:54.890Z,99.00
2022-08-05T14:02:52.916Z,99.60
2022-08-05T14:08:00.479Z,99.90
2022-08-05T14:13:07.686Z,98.80
2022-08-05T14:18:06.402Z,98.40
2022-08-05T14:23:19.188Z,97.00
2022-08-05T14:28:26.871Z,97.70
2022-08-05T14:33:25.498Z,97.60
2022-08-05T14:38:32.816Z,97.70
2022-08-05T14:44:02.271Z,98.30
2022-08-05T14:48:53.563Z,99.30
2022-08-05T14:54:27.428Z,99.90
2022-08-05T14:59:12.747Z,99.90
2022-08-05T15:04:11.836Z,99.90
2022-08-05T15:09:09.952Z,99.90
2022-08-05T15:14:08.581Z,99.90
2022-08-05T15:19:07.983Z,99.90
2022-08-05T15:24:21.376Z,99.90
2022-08-05T15:29:20.419Z,99.90
2022-08-05T15:34:32.166Z,99.90
2022-08-05T15:41:04.163Z,99.90
2022-08-05T15:44:49.462Z,99.90
2022-08-05T15:49:56.878Z,99.90
2022-08-05T15:54:57.326Z,99.90
2022-08-05T15:59:57.637Z,99.90
2022-08-05T16:04:57.291Z,99.90
2022-08-05T16:09:55.353Z,99.90
2022-08-05T16:14:53.505Z,99.90
2022-08-05T16:20:11.275Z,99.90
2022-08-05T16:25:11.282Z,99.90
2022-08-05T16:30:25.944Z,99.90
2022-08-05T16:35:27.869Z,99.90
2022-08-05T16:40:29.069Z,99.90
2022-08-05T16:46:03.929Z,99.90
2022-08-05T16:50:45.823Z,99.90
2022-08-05T16:55:47.113Z,99.90
2022-08-05T17:00:45.856Z,99.90
2022-08-05T17:05:50.243Z,99.90
2022-08-05T17:10:53.555Z,99.90
2022-08-05T17:15:55.624Z,99.90
2022-08-05T17:21:05.782Z,99.90
2022-08-05T17:26:05.447Z,99.90
2022-08-05T17:31:08.421Z,99.90
2022-08-05T17:36:32.782Z,99.90
2022-08-05T17:42:17.891Z,99.90
2022-08-05T17:46:52.566Z,99.90
2022-08-05T17:51:52.114Z,99.90
2022-08-05T17:56:54.602Z,99.90
2022-08-05T18:01:52.622Z,99.90
2022-08-05T18:06:54.370Z,99.90
2022-08-05T18:11:59.949Z,99.90
2022-08-05T18:16:58.048Z,99.90
2022-08-05T18:22:08.736Z,99.90
2022-08-05T18:27:12.705Z,99.90
2022-08-05T18:32:16.703Z,99.90
2022-08-05T18:37:16.927Z,99.90
2022-08-05T18:42:34.080Z,99.90
2022-08-05T18:47:32.159Z,99.90
2022-08-05T18:52:35.762Z,99.90
2022-08-05T18:57:43.024Z,99.90
2022-08-05T19:02:48.360Z,99.90
2022-08-05T19:07:47.894Z,99.90
2022-08-05T19:12:48.316Z,99.90
2022-08-05T19:18:08.101Z,99.90
2022-08-05T19:23:08.028Z,99.90
2022-08-05T19:28:07.621Z,99.90
2022-08-05T19:33:08.852Z,99.90
2022-08-05T19:38:14.731Z,99.90
2022-08-05T19:44:04.654Z,99.90
2022-08-05T19:48:32.238Z,99.90
2022-08-05T19:54:04.588Z,99.90
2022-08-05T19:58:53.881Z,99.90
2022-08-05T20:03:52.452Z,99.90
2022-08-05T20:08:51.561Z,99.90
2022-08-05T20:13:58.967Z,99.90
2022-08-05T20:19:10.337Z,99.90
2022-08-05T20:24:11.370Z,99.90
2022-08-05T20:29:26.872Z,99.90
2022-08-05T20:34:25.730Z,99.90
2022-08-05T20:39:23.834Z,99.90
2022-08-05T20:44:29.146Z,99.90
2022-08-05T20:49:28.860Z,99.90
2022-08-05T20:54:59.738Z,99.90
2022-08-05T21:00:20.738Z,99.90
2022-08-05T21:05:06.626Z,99.90
2022-08-05T21:10:09.350Z,99.90
2022-08-05T21:15:13.323Z,99.90
2022-08-05T21:20:12.264Z,99.90
2022-08-05T21:25:12.155Z,99.90
2022-08-05T21:30:10.984Z,99.90
2022-08-05T21:35:18.326Z,99.90
2022-08-05T21:40:28.287Z,99.90
2022-08-05T21:45:56.217Z,99.90
2022-08-05T21:50:53.145Z,99.90
2022-08-05T21:56:05.209Z,99.90
2022-08-05T22:01:07.935Z,99.90
2022-08-05T22:06:10.194Z,99.90
2022-08-05T22:11:09.025Z,99.90
2022-08-05T22:16:26.067Z,99.90
2022-08-05T22:21:27.645Z,99.90
2022-08-05T22:26:49.830Z,99.90
2022-08-05T22:31:55.164Z,99.90
2022-08-05T22:36:59.486Z,99.90
2022-08-05T22:42:09.721Z,99.90
2022-08-05T22:47:11.206Z,99.90
2022-08-05T22:52:22.819Z,99.90
2022-08-05T22:57:36.350Z,99.90
2022-08-05T23:02:35.185Z,99.90
2022-08-05T23:07:45.179Z,99.90
2022-08-05T23:12:46.408Z,99.90
2022-08-05T23:18:00.824Z,99.90
2022-08-05T23:23:03.540Z,99.90
2022-08-05T23:28:04.190Z,99.90
2022-08-05T23:33:05.395Z,99.90
2022-08-05T23:38:15.829Z,99.90
2022-08-05T23:43:25.712Z,99.90
2022-08-05T23:48:32.899Z,99.90
2022-08-05T23:53:46.353Z,99.90
2022-08-05T23:58:45.267Z,99.90
